createdAt,value
2018-03-06T00:01:48.995Z,89.55
2018-03-06T00:04:16.618Z,89.95
2018-03-06T00:06:44.231Z,90.08
2018-03-06T00:09:11.838Z,89.72
2018-03-06T00:11:39.448Z,88.80
2018-03-06T00:14:07.057Z,89.76
2018-03-06T00:16:34.679Z,89.59
2018-03-06T00:19:02.300Z,89.68
2018-03-06T00:21:30.682Z,89.54
2018-03-06T00:23:59.010Z,89.31
2018-03-06T00:26:27.435Z,89.72
2018-03-06T00:28:55.014Z,89.87
2018-03-06T00:31:23.337Z,90.13
2018-03-06T00:33:51.734Z,89.48
2018-03-06T00:36:19.341Z,89.51
2018-03-06T00:38:46.970Z,88.54
2018-03-06T00:41:15.399Z,88.36
2018-03-06T00:43:43.051Z,88.45
2018-03-06T00:46:11.578Z,89.24
2018-03-06T00:48:39.982Z,89.22
2018-03-06T00:51:07.598Z,89.54
2018-03-06T00:53:35.927Z,89.82
2018-03-06T00:56:04.235Z,89.96
2018-03-06T00:58:32.535Z,89.88
2018-03-06T01:01:00.163Z,89.58
2018-03-06T01:03:27.767Z,89.04
2018-03-06T01:05:56.172Z,89.40
2018-03-06T01:08:24.494Z,89.16
2018-03-06T01:10:52.899Z,89.05
2018-03-06T01:13:21.226Z,88.66
2018-03-06T01:15:48.887Z,88.57
2018-03-06T01:18:16.530Z,89.06
2018-03-06T01:20:45.077Z,89.00
2018-03-06T01:23:12.691Z,90.20
2018-03-06T01:25:40.995Z,89.32
2018-03-06T01:28:08.598Z,89.34
2018-03-06T01:30:36.192Z,89.83
2018-03-06T01:33:03.807Z,89.50
2018-03-06T01:35:31.410Z,89.43
2018-03-06T01:37:59.842Z,89.01
2018-03-06T01:40:28.239Z,88.44
2018-03-06T01:42:56.035Z,89.52
2018-03-06T01:45:24.218Z,89.44
2018-03-06T01:47:52.793Z,88.76
2018-03-06T01:50:20.402Z,88.70
2018-03-06T01:52:48.009Z,88.38
2018-03-06T01:55:16.100Z,88.53
2018-03-06T01:57:44.567Z,88.77
2018-03-06T02:00:12.923Z,88.90
2018-03-06T02:02:40.558Z,88.45
2018-03-06T02:05:08.930Z,88.77
2018-03-06T02:07:36.571Z,88.72
2018-03-06T02:10:04.174Z,89.02
2018-03-06T02:12:31.786Z,89.10
2018-03-06T02:15:00.167Z,90.60
2018-03-06T02:17:28.478Z,90.36
2018-03-06T02:19:56.079Z,90.65
2018-03-06T02:22:24.619Z,89.48
2018-03-06T02:24:52.232Z,89.06
2018-03-06T02:27:19.889Z,88.92
2018-03-06T02:29:48.334Z,89.23
2018-03-06T02:32:16.772Z,88.98
2018-03-06T02:34:45.226Z,89.03
2018-03-06T02:37:13.548Z,88.67
2018-03-06T02:39:41.200Z,88.80
2018-03-06T02:42:09.511Z,88.72
2018-03-06T02:44:37.118Z,90.03
2018-03-06T02:47:05.672Z,89.34
2018-03-06T02:49:33.326Z,90.69
2018-03-06T02:52:01.639Z,90.58
2018-03-06T02:54:29.993Z,90.51
2018-03-06T02:56:57.612Z,90.41
2018-03-06T02:59:26.158Z,90.54
2018-03-06T03:01:54.495Z,89.62
2018-03-06T03:04:22.842Z,89.58
2018-03-06T03:06:51.282Z,89.17
2018-03-06T03:09:20.966Z,89.02
2018-03-06T03:11:48.578Z,88.71
2018-03-06T03:14:16.952Z,88.60
2018-03-06T03:16:44.573Z,88.81
2018-03-06T03:19:12.175Z,88.59
2018-03-06T03:21:39.786Z,88.15
2018-03-06T03:24:07.403Z,88.08
2018-03-06T03:26:35.051Z,88.31
2018-03-06T03:29:02.658Z,88.66
2018-03-06T03:31:30.276Z,90.28
2018-03-06T03:33:57.883Z,89.39
2018-03-06T03:36:25.482Z,90.45
2018-03-06T03:38:53.104Z,90.50
2018-03-06T03:41:20.714Z,89.78
2018-03-06T03:43:48.378Z,89.95
2018-03-06T03:46:15.992Z,89.08
2018-03-06T03:48:45.431Z,88.81
2018-03-06T03:51:13.827Z,89.12
2018-03-06T03:53:41.449Z,89.05
2018-03-06T03:56:10.970Z,89.29
2018-03-06T03:58:38.583Z,89.88
2018-03-06T04:01:06.187Z,89.15
2018-03-06T04:03:33.798Z,89.60
2018-03-06T04:06:01.986Z,90.03
2018-03-06T04:08:29.591Z,90.25
2018-03-06T04:10:57.210Z,89.67
2018-03-06T04:13:24.816Z,89.56
2018-03-06T04:15:52.465Z,90.17
2018-03-06T04:18:20.086Z,89.52
2018-03-06T04:20:47.691Z,89.10
2018-03-06T04:23:15.366Z,89.45
2018-03-06T04:25:43.014Z,90.68
2018-03-06T04:28:11.652Z,90.45
2018-03-06T04:30:39.306Z,89.62
2018-03-06T04:33:06.915Z,90.07
2018-03-06T04:35:34.523Z,89.73
2018-03-06T04:38:02.143Z,89.62
2018-03-06T04:40:29.793Z,91.80
2018-03-06T04:42:57.392Z,92.69
2018-03-06T04:45:25.950Z,92.60
2018-03-06T04:47:54.379Z,91.15
2018-03-06T04:50:22.792Z,90.67
2018-03-06T04:52:51.233Z,92.22
2018-03-06T04:55:19.617Z,91.28
2018-03-06T04:57:47.659Z,92.09
2018-03-06T05:00:15.282Z,91.54
2018-03-06T05:02:42.919Z,91.11
2018-03-06T05:05:11.371Z,91.08
2018-03-06T05:07:39.731Z,90.29
2018-03-06T05:10:07.346Z,90.40
2018-03-06T05:12:35.938Z,90.20
2018-03-06T05:15:04.322Z,90.86
2018-03-06T05:17:31.943Z,90.53
2018-03-06T05:19:59.604Z,91.03
2018-03-06T05:22:27.223Z,90.96
2018-03-06T05:24:54.863Z,90.68
2018-03-06T05:27:22.490Z,90.39
2018-03-06T05:29:50.927Z,92.35
2018-03-06T05:32:18.588Z,91.72
2018-03-06T05:34:46.953Z,92.91
2018-03-06T05:37:15.456Z,93.11
2018-03-06T05:39:44.318Z,93.24
2018-03-06T05:42:12.800Z,93.10
2018-03-06T05:44:41.190Z,93.13
2018-03-06T05:47:08.875Z,93.01
2018-03-06T05:49:36.684Z,91.78
2018-03-06T05:52:04.890Z,91.15
2018-03-06T05:54:32.618Z,90.73
2018-03-06T05:57:00.981Z,90.63
2018-03-06T05:59:28.664Z,91.54
2018-03-06T06:01:56.312Z,90.67
2018-03-06T06:04:24.057Z,91.85
2018-03-06T06:06:52.582Z,91.44
2018-03-06T06:09:21.115Z,90.74
2018-03-06T06:11:48.776Z,90.36
2018-03-06T06:14:16.475Z,91.26
2018-03-06T06:16:44.179Z,91.01
2018-03-06T06:19:11.799Z,90.06
2018-03-06T06:21:40.353Z,89.94
2018-03-06T06:24:08.751Z,91.15
2018-03-06T06:26:36.380Z,91.42
2018-03-06T06:29:03.974Z,91.48
2018-03-06T06:31:32.513Z,91.24
2018-03-06T06:34:00.103Z,90.69
2018-03-06T06:36:27.733Z,90.28
2018-03-06T06:38:55.332Z,90.79
2018-03-06T06:41:23.136Z,90.60
2018-03-06T06:43:50.728Z,90.61
2018-03-06T06:46:18.320Z,90.39
2018-03-06T06:48:45.943Z,90.45
2018-03-06T06:51:13.536Z,90.22
2018-03-06T06:53:41.130Z,89.89
2018-03-06T06:56:08.714Z,89.75
2018-03-06T06:58:37.298Z,89.40
2018-03-06T07:01:04.887Z,89.00
2018-03-06T07:03:32.471Z,89.01
2018-03-06T07:06:00.094Z,88.35
2018-03-06T07:08:27.719Z,87.81
2018-03-06T07:10:55.317Z,87.53
2018-03-06T07:13:22.921Z,87.73
2018-03-06T07:15:50.505Z,87.02
2018-03-06T07:18:18.134Z,87.29
2018-03-06T07:20:45.728Z,87.53
2018-03-06T07:23:13.350Z,87.20
2018-03-06T07:25:40.947Z,86.78
2018-03-06T07:28:08.571Z,86.36
2018-03-06T07:30:36.154Z,86.27
2018-03-06T07:33:03.748Z,86.08
2018-03-06T07:35:31.362Z,85.61
2018-03-06T07:37:58.949Z,85.41
2018-03-06T07:40:27.339Z,85.08
2018-03-06T07:42:55.710Z,84.89
2018-03-06T07:45:23.341Z,83.92
2018-03-06T07:47:50.959Z,83.80
2018-03-06T07:50:18.542Z,83.79
2018-03-06T07:52:46.135Z,83.21
2018-03-06T07:55:13.760Z,83.53
2018-03-06T07:57:41.342Z,82.76
2018-03-06T08:00:08.979Z,82.48
2018-03-06T08:02:36.559Z,82.84
2018-03-06T08:05:04.165Z,81.61
2018-03-06T08:07:31.759Z,81.39
2018-03-06T08:09:59.358Z,81.58
2018-03-06T08:12:26.944Z,81.56
2018-03-06T08:14:55.499Z,81.62
2018-03-06T08:17:23.890Z,80.32
2018-03-06T08:19:52.427Z,81.27
2018-03-06T08:22:20.806Z,80.32
2018-03-06T08:24:48.422Z,80.69
2018-03-06T08:27:16.011Z,80.25
2018-03-06T08:29:44.340Z,79.83
2018-03-06T08:32:12.844Z,78.75
2018-03-06T08:34:40.433Z,79.17
2018-03-06T08:37:08.959Z,79.88
2018-03-06T08:39:37.331Z,79.14
2018-03-06T08:42:04.927Z,77.58
2018-03-06T08:44:33.370Z,77.08
2018-03-06T08:47:00.952Z,77.40
2018-03-06T08:49:28.571Z,76.64
2018-03-06T08:51:56.155Z,76.74
2018-03-06T08:54:23.742Z,75.97
2018-03-06T08:56:51.354Z,75.31
2018-03-06T08:59:18.932Z,75.83
2018-03-06T09:01:46.518Z,75.20
2018-03-06T09:04:14.098Z,74.17
2018-03-06T09:06:41.710Z,74.36
2018-03-06T09:09:09.285Z,74.33
2018-03-06T09:11:36.907Z,74.61
2018-03-06T09:14:04.494Z,74.15
2018-03-06T09:16:32.079Z,73.64
2018-03-06T09:19:00.443Z,72.72
2018-03-06T09:21:28.026Z,72.83
2018-03-06T09:23:55.607Z,72.52
2018-03-06T09:26:23.196Z,71.61
2018-03-06T09:28:50.783Z,71.91
2018-03-06T09:31:18.367Z,71.90
2018-03-06T09:33:45.943Z,71.25
2018-03-06T09:36:13.523Z,69.30
2018-03-06T09:38:41.098Z,68.03
2018-03-06T09:41:08.674Z,67.97
2018-03-06T09:43:36.247Z,67.85
2018-03-06T09:46:03.831Z,67.56
2018-03-06T09:48:31.406Z,67.21
2018-03-06T09:50:59.894Z,66.12
2018-03-06T09:53:27.466Z,66.46
2018-03-06T09:55:55.051Z,66.13
2018-03-06T09:58:22.631Z,65.67
2018-03-06T10:00:50.210Z,65.07
2018-03-06T10:03:17.820Z,64.54
2018-03-06T10:05:45.394Z,63.45
2018-03-06T10:08:13.760Z,62.42
2018-03-06T10:10:41.342Z,61.21
2018-03-06T10:13:08.918Z,62.06
2018-03-06T10:15:36.498Z,62.57
2018-03-06T10:18:04.078Z,63.13
2018-03-06T10:20:31.698Z,62.77
2018-03-06T10:22:59.287Z,60.79
2018-03-06T10:25:26.862Z,61.09
2018-03-06T10:27:54.463Z,60.44
2018-03-06T10:30:22.043Z,61.17
2018-03-06T10:32:49.632Z,58.88
2018-03-06T10:35:17.228Z,60.02
2018-03-06T10:37:44.828Z,59.84
2018-03-06T10:40:12.404Z,60.74
2018-03-06T10:42:39.988Z,60.16
2018-03-06T10:45:07.560Z,57.79
2018-03-06T10:47:35.142Z,58.32
2018-03-06T10:50:02.723Z,58.67
2018-03-06T10:52:30.307Z,57.41
2018-03-06T10:54:57.892Z,57.66
2018-03-06T10:57:25.463Z,58.72
2018-03-06T10:59:53.041Z,57.33
2018-03-06T11:02:20.618Z,58.60
2018-03-06T11:04:48.194Z,57.60
2018-03-06T11:07:15.778Z,57.20
2018-03-06T11:09:43.362Z,57.07
2018-03-06T11:12:10.943Z,57.24
2018-03-06T11:14:38.553Z,57.16
2018-03-06T11:17:06.148Z,57.30
2018-03-06T11:19:33.731Z,57.36
2018-03-06T11:22:01.311Z,57.08
2018-03-06T11:24:28.923Z,56.74
2018-03-06T11:26:56.499Z,56.30
2018-03-06T11:29:24.106Z,55.95
2018-03-06T11:31:51.688Z,57.04
2018-03-06T11:34:19.307Z,55.79
2018-03-06T11:36:46.887Z,55.99
2018-03-06T11:39:14.475Z,55.23
2018-03-06T11:41:42.055Z,54.19
2018-03-06T11:44:09.640Z,54.90
2018-03-06T11:46:37.224Z,56.04
2018-03-06T11:49:04.811Z,57.44
2018-03-06T11:51:32.390Z,56.86
2018-03-06T11:53:59.972Z,55.74
2018-03-06T11:56:27.560Z,55.40
2018-03-06T11:58:55.191Z,55.99
2018-03-06T12:01:22.807Z,56.02
2018-03-06T12:03:50.383Z,56.37
2018-03-06T12:06:17.962Z,56.86
2018-03-06T12:08:45.543Z,57.64
2018-03-06T12:11:13.122Z,56.54
2018-03-06T12:13:40.722Z,57.11
2018-03-06T12:16:08.304Z,56.95
2018-03-06T12:18:35.924Z,56.40
2018-03-06T12:21:03.492Z,56.48
2018-03-06T12:23:31.076Z,56.06
2018-03-06T12:25:58.651Z,55.19
2018-03-06T12:28:26.227Z,56.34
2018-03-06T12:30:53.805Z,55.63
2018-03-06T12:33:21.390Z,55.44
2018-03-06T12:35:48.974Z,55.26
2018-03-06T12:38:17.463Z,55.20
2018-03-06T12:40:45.040Z,54.71
2018-03-06T12:43:12.615Z,54.29
2018-03-06T12:45:40.202Z,54.57
2018-03-06T12:48:07.788Z,55.57
2018-03-06T12:50:35.372Z,55.49
2018-03-06T12:53:03.735Z,55.94
2018-03-06T12:55:31.324Z,55.38
2018-03-06T12:57:58.898Z,54.85
2018-03-06T13:00:26.478Z,55.37
2018-03-06T13:02:54.058Z,55.72
2018-03-06T13:05:21.637Z,55.39
2018-03-06T13:07:49.218Z,55.04
2018-03-06T13:10:16.799Z,55.97
2018-03-06T13:12:44.414Z,55.68
2018-03-06T13:15:12.769Z,53.91
2018-03-06T13:17:40.348Z,54.77
2018-03-06T13:20:07.930Z,54.93
2018-03-06T13:22:35.547Z,54.81
2018-03-06T13:25:03.139Z,54.79
2018-03-06T13:27:30.718Z,54.74
2018-03-06T13:29:58.309Z,55.18
2018-03-06T13:32:25.894Z,55.00
2018-03-06T13:34:53.483Z,54.44
2018-03-06T13:37:21.108Z,55.60
2018-03-06T13:39:48.709Z,55.29
2018-03-06T13:42:16.307Z,56.44
2018-03-06T13:44:44.779Z,55.96
2018-03-06T13:47:12.359Z,56.19
2018-03-06T13:49:39.949Z,56.39
2018-03-06T13:52:07.535Z,55.74
2018-03-06T13:54:35.149Z,55.54
2018-03-06T13:57:02.734Z,55.06
2018-03-06T13:59:30.469Z,56.13
2018-03-06T14:01:58.054Z,55.84
2018-03-06T14:04:25.643Z,55.75
2018-03-06T14:06:53.220Z,56.17
2018-03-06T14:09:20.799Z,55.78
2018-03-06T14:11:48.385Z,56.64
2018-03-06T14:14:15.959Z,57.37
2018-03-06T14:16:43.539Z,57.56
2018-03-06T14:19:11.124Z,58.17
2018-03-06T14:21:38.715Z,58.34
2018-03-06T14:24:06.298Z,58.67
2018-03-06T14:26:33.886Z,58.45
2018-03-06T14:29:01.467Z,58.57
2018-03-06T14:31:29.087Z,58.89
2018-03-06T14:33:56.666Z,58.74
2018-03-06T14:36:24.252Z,59.39
2018-03-06T14:38:51.831Z,59.76
2018-03-06T14:41:19.452Z,60.19
2018-03-06T14:43:47.046Z,60.79
2018-03-06T14:46:14.623Z,60.63
2018-03-06T14:48:42.210Z,61.23
2018-03-06T14:51:09.815Z,61.67
2018-03-06T14:53:38.195Z,61.42
2018-03-06T14:56:05.774Z,62.48
2018-03-06T14:58:33.380Z,64.87
2018-03-06T15:01:01.756Z,66.94
2018-03-06T15:03:29.338Z,69.93
2018-03-06T15:05:56.923Z,72.79
2018-03-06T15:08:24.511Z,75.56
2018-03-06T15:10:52.095Z,78.66
2018-03-06T15:13:19.692Z,79.00
2018-03-06T15:15:47.275Z,80.42
2018-03-06T15:18:14.850Z,82.60
2018-03-06T15:20:42.427Z,83.70
2018-03-06T15:23:10.012Z,84.10
2018-03-06T15:25:37.595Z,85.62
2018-03-06T15:28:05.892Z,86.17
2018-03-06T15:30:33.487Z,86.21
2018-03-06T15:33:02.031Z,86.81
2018-03-06T15:35:30.343Z,87.40
2018-03-06T15:37:57.919Z,87.66
2018-03-06T15:40:25.535Z,87.31
2018-03-06T15:42:53.126Z,87.89
2018-03-06T15:45:20.710Z,88.45
2018-03-06T15:47:48.294Z,88.56
2018-03-06T15:50:16.906Z,89.73
2018-03-06T15:52:44.527Z,88.82
2018-03-06T15:55:12.112Z,89.40
2018-03-06T15:57:39.695Z,88.58
2018-03-06T16:00:08.195Z,88.85
2018-03-06T16:02:35.908Z,88.95
2018-03-06T16:05:04.199Z,90.36
2018-03-06T16:07:31.779Z,91.00
2018-03-06T16:09:59.410Z,91.45
2018-03-06T16:12:27.004Z,91.92
2018-03-06T16:14:54.587Z,91.59
2018-03-06T16:17:22.171Z,90.89
2018-03-06T16:19:52.007Z,91.84
2018-03-06T16:22:22.492Z,92.63
2018-03-06T16:24:52.993Z,93.16
2018-03-06T16:27:23.523Z,92.97
2018-03-06T16:29:52.161Z,92.52
2018-03-06T16:32:19.815Z,93.34
2018-03-06T16:34:47.418Z,93.76
2018-03-06T16:37:15.003Z,94.44
2018-03-06T16:39:43.512Z,94.65
2018-03-06T16:42:11.912Z,94.46
2018-03-06T16:44:40.510Z,94.05
2018-03-06T16:47:08.135Z,93.71
2018-03-06T16:49:35.717Z,92.41
2018-03-06T16:52:03.303Z,92.36
2018-03-06T16:54:30.916Z,92.55
2018-03-06T16:56:58.554Z,92.17
2018-03-06T16:59:26.235Z,92.61
2018-03-06T17:01:53.967Z,92.65
2018-03-06T17:04:21.566Z,93.25
2018-03-06T17:06:49.179Z,93.64
2018-03-06T17:09:16.765Z,94.21
2018-03-06T17:11:44.447Z,93.43
2018-03-06T17:14:12.026Z,93.51
2018-03-06T17:16:39.608Z,93.73
2018-03-06T17:19:07.195Z,93.12
2018-03-06T17:21:34.779Z,92.63
2018-03-06T17:24:02.376Z,93.26
2018-03-06T17:26:29.961Z,92.53
2018-03-06T17:28:57.558Z,92.35
2018-03-06T17:31:25.955Z,92.90
2018-03-06T17:33:54.453Z,93.29
2018-03-06T17:36:23.109Z,93.89
2018-03-06T17:38:50.708Z,94.74
2018-03-06T17:41:19.298Z,93.22
2018-03-06T17:43:46.968Z,93.62
2018-03-06T17:46:14.556Z,93.14
2018-03-06T17:48:42.439Z,93.33
2018-03-06T17:51:10.089Z,93.25
2018-03-06T17:53:38.271Z,93.00
2018-03-06T17:56:05.850Z,93.33
2018-03-06T17:58:33.435Z,93.27
2018-03-06T18:01:01.278Z,92.86
2018-03-06T18:03:29.790Z,92.93
2018-03-06T18:05:57.494Z,93.39
2018-03-06T18:08:25.163Z,93.47
2018-03-06T18:10:52.755Z,93.47
2018-03-06T18:13:20.390Z,93.28
2018-03-06T18:15:48.035Z,93.54
2018-03-06T18:18:19.409Z,93.81
2018-03-06T18:20:47.170Z,93.66
2018-03-06T18:23:14.760Z,94.03
2018-03-06T18:25:42.911Z,94.46
2018-03-06T18:28:10.640Z,94.60
2018-03-06T18:30:38.230Z,94.53
2018-03-06T18:33:05.819Z,94.13
2018-03-06T18:35:34.104Z,94.67
2018-03-06T18:38:03.634Z,94.16
2018-03-06T18:40:31.300Z,94.12
2018-03-06T18:42:58.947Z,93.48
2018-03-06T18:45:27.468Z,93.42
2018-03-06T18:47:55.080Z,93.83
2018-03-06T18:50:34.910Z,93.20
2018-03-06T18:53:02.507Z,93.03
2018-03-06T18:55:30.998Z,93.68
2018-03-06T18:57:58.591Z,94.07
2018-03-06T19:03:46.007Z,93.48
2018-03-06T19:06:22.387Z,92.92
2018-03-06T19:08:49.975Z,93.25
2018-03-06T19:11:17.578Z,93.12
2018-03-06T19:13:45.176Z,93.03
2018-03-06T19:16:13.562Z,93.44
2018-03-06T19:18:41.136Z,93.49
2018-03-06T19:21:08.725Z,93.02
2018-03-06T19:23:36.399Z,93.28
2018-03-06T19:26:03.984Z,92.98
2018-03-06T19:28:31.613Z,93.37
2018-03-06T19:30:59.210Z,93.15
2018-03-06T19:33:26.855Z,93.53
2018-03-06T19:35:55.207Z,93.90
2018-03-06T19:38:23.758Z,94.32
2018-03-06T19:40:51.347Z,94.51
2018-03-06T19:43:18.925Z,94.66
2018-03-06T19:45:47.300Z,95.26
2018-03-06T19:48:14.891Z,94.43
2018-03-06T19:50:43.207Z,93.96
2018-03-06T19:53:11.609Z,93.96
2018-03-06T19:55:40.199Z,94.34
2018-03-06T19:58:07.883Z,94.03
2018-03-06T20:00:35.453Z,94.60
2018-03-06T20:03:03.051Z,94.92
2018-03-06T20:05:30.674Z,94.40
2018-03-06T20:07:58.287Z,94.35
2018-03-06T20:10:25.870Z,94.66
2018-03-06T20:12:53.502Z,94.29
2018-03-06T20:15:21.987Z,94.24
2018-03-06T20:17:49.602Z,93.95
2018-03-06T20:20:17.183Z,94.11
2018-03-06T20:22:45.672Z,93.65
2018-03-06T20:25:19.132Z,93.59
2018-03-06T20:27:46.711Z,94.26
2018-03-06T20:30:19.999Z,94.42
2018-03-06T20:32:53.385Z,93.72
2018-03-06T20:35:21.051Z,93.66
2018-03-06T20:37:49.585Z,93.09
2018-03-06T20:40:22.690Z,93.91
2018-03-06T20:42:51.132Z,93.54
2018-03-06T20:45:18.900Z,93.58
2018-03-06T20:47:46.539Z,93.67
2018-03-06T20:50:14.247Z,94.20
2018-03-06T20:52:47.618Z,94.07
2018-03-06T20:55:15.262Z,94.50
2018-03-06T20:57:42.876Z,94.15
2018-03-06T21:00:10.486Z,93.97
2018-03-06T21:02:38.103Z,94.11
2018-03-06T21:05:05.711Z,93.74
2018-03-06T21:07:33.375Z,94.29
2018-03-06T21:10:00.953Z,94.44
2018-03-06T21:12:28.539Z,94.13
2018-03-06T21:14:56.138Z,95.63
2018-03-06T21:17:23.719Z,96.03
2018-03-06T21:19:51.303Z,95.75
2018-03-06T21:22:18.889Z,95.11
2018-03-06T21:24:46.482Z,95.11
2018-03-06T21:27:14.071Z,94.81
2018-03-06T21:29:41.667Z,94.96
2018-03-06T21:32:09.282Z,95.10
2018-03-06T21:34:36.902Z,94.68
2018-03-06T21:37:04.518Z,94.34
2018-03-06T21:39:32.131Z,94.29
2018-03-06T21:41:59.754Z,94.71
2018-03-06T21:44:27.353Z,94.41
2018-03-06T21:46:54.975Z,94.44
2018-03-06T21:49:23.299Z,94.27
2018-03-06T21:51:51.961Z,94.54
2018-03-06T21:54:20.567Z,94.33
2018-03-06T21:56:48.987Z,94.18
2018-03-06T21:59:16.577Z,94.24
2018-03-06T22:01:44.166Z,94.11
2018-03-06T22:04:11.747Z,93.98
2018-03-06T22:06:39.327Z,93.71
2018-03-06T22:09:06.908Z,93.35
2018-03-06T22:11:34.550Z,93.40
2018-03-06T22:14:02.249Z,93.94
2018-03-06T22:16:30.604Z,93.95
2018-03-06T22:18:58.186Z,93.71
2018-03-06T22:21:25.827Z,93.39
2018-03-06T22:23:53.420Z,93.91
2018-03-06T22:26:21.042Z,94.12
2018-03-06T22:28:48.619Z,94.04
2018-03-06T22:31:16.243Z,94.08
2018-03-06T22:33:43.879Z,94.62
2018-03-06T22:36:11.471Z,93.72
2018-03-06T22:38:39.057Z,93.59
2018-03-06T22:41:06.648Z,93.86
2018-03-06T22:43:34.230Z,94.61
2018-03-06T22:46:02.636Z,94.50
2018-03-06T22:48:30.216Z,93.80
2018-03-06T22:50:57.842Z,93.89
2018-03-06T22:53:25.428Z,94.01
2018-03-06T22:55:53.196Z,94.21
2018-03-06T22:58:20.780Z,94.61
2018-03-06T23:00:49.211Z,94.81
2018-03-06T23:03:17.651Z,94.19
2018-03-06T23:05:46.070Z,94.21
2018-03-06T23:08:14.366Z,94.48
2018-03-06T23:10:42.795Z,94.66
2018-03-06T23:13:10.435Z,94.69
2018-03-06T23:15:38.023Z,95.14
2018-03-06T23:18:05.615Z,94.26
2018-03-06T23:20:34.128Z,94.16
2018-03-06T23:23:02.499Z,94.16
2018-03-06T23:25:30.082Z,94.22
2018-03-06T23:27:58.587Z,94.15
2018-03-06T23:30:26.943Z,94.13
2018-03-06T23:32:54.567Z,93.91
2018-03-06T23:35:23.078Z,94.85
2018-03-06T23:37:51.347Z,94.23
2018-03-06T23:46:00.146Z,94.21
2018-03-06T23:48:27.691Z,93.83
2018-03-06T23:50:55.286Z,94.20
2018-03-06T23:53:22.834Z,94.56
2018-03-06T23:55:51.186Z,94.01
2018-03-06T23:58:19.582Z,94.19
